sensor_id;sensor_type;location;lat;lon;timestamp;P1;durP1;ratioP1;P2;durP2;ratioP2
70547;SDS011;58099;43.406;3.698;2022-09-28T00:01:55;8.00;;;0.80;;
70547;SDS011;58099;43.406;3.698;2022-09-28T00:04:21;9.90;;;0.85;;
70547;SDS011;58099;43.406;3.698;2022-09-28T00:06:47;10.73;;;1.00;;
70547;SDS011;58099;43.406;3.698;2022-09-28T00:09:13;7.80;;;1.00;;
70547;SDS011;58099;43.406;3.698;2022-09-28T00:11:39;8.85;;;0.73;;
70547;SDS011;58099;43.406;3.698;2022-09-28T00:14:07;9.30;;;0.85;;
70547;SDS011;58099;43.406;3.698;2022-09-28T00:16:37;9.32;;;1.08;;
70547;SDS011;58099;43.406;3.698;2022-09-28T00:19:05;8.00;;;1.10;;
70547;SDS011;58099;43.406;3.698;2022-09-28T00:21:31;8.40;;;1.05;;
70547;SDS011;58099;43.406;3.698;2022-09-28T00:24:00;11.32;;;1.30;;
70547;SDS011;58099;43.406;3.698;2022-09-28T00:26:36;10.38;;;1.20;;
70547;SDS011;58099;43.406;3.698;2022-09-28T00:29:05;8.17;;;1.47;;
70547;SDS011;58099;43.406;3.698;2022-09-28T00:31:32;9.73;;;1.33;;
70547;SDS011;58099;43.406;3.698;2022-09-28T00:33:59;9.82;;;1.30;;
70547;SDS011;58099;43.406;3.698;2022-09-28T00:36:29;10.40;;;1.67;;
70547;SDS011;58099;43.406;3.698;2022-09-28T00:38:56;11.00;;;1.50;;
70547;SDS011;58099;43.406;3.698;2022-09-28T00:41:23;10.00;;;0.93;;
70547;SDS011;58099;43.406;3.698;2022-09-28T00:43:50;11.55;;;1.33;;
70547;SDS011;58099;43.406;3.698;2022-09-28T00:46:18;8.98;;;1.38;;
70547;SDS011;58099;43.406;3.698;2022-09-28T00:48:54;8.13;;;1.42;;
70547;SDS011;58099;43.406;3.698;2022-09-28T00:51:27;10.43;;;1.20;;
70547;SDS011;58099;43.406;3.698;2022-09-28T00:53:55;10.03;;;1.20;;
70547;SDS011;58099;43.406;3.698;2022-09-28T00:56:23;9.15;;;1.25;;
70547;SDS011;58099;43.406;3.698;2022-09-28T00:58:51;10.52;;;1.08;;
70547;SDS011;58099;43.406;3.698;2022-09-28T01:01:18;11.10;;;0.93;;
70547;SDS011;58099;43.406;3.698;2022-09-28T01:03:44;7.88;;;1.33;;
70547;SDS011;58099;43.406;3.698;2022-09-28T01:06:22;8.63;;;1.03;;
70547;SDS011;58099;43.406;3.698;2022-09-28T01:08:51;7.43;;;0.88;;
70547;SDS011;58099;43.406;3.698;2022-09-28T01:11:22;7.88;;;0.90;;
70547;SDS011;58099;43.406;3.698;2022-09-28T01:13:50;6.25;;;0.77;;
70547;SDS011;58099;43.406;3.698;2022-09-28T01:16:35;8.73;;;0.88;;
70547;SDS011;58099;43.406;3.698;2022-09-28T01:27:26;7.38;;;0.70;;
70547;SDS011;58099;43.406;3.698;2022-09-28T01:30:03;9.82;;;1.13;;
70547;SDS011;58099;43.406;3.698;2022-09-28T01:35:13;10.38;;;1.02;;
70547;SDS011;58099;43.406;3.698;2022-09-28T01:40:33;8.13;;;1.10;;
70547;SDS011;58099;43.406;3.698;2022-09-28T01:43:44;7.93;;;0.95;;
70547;SDS011;58099;43.406;3.698;2022-09-28T01:48:43;9.25;;;0.85;;
70547;SDS011;58099;43.406;3.698;2022-09-28T01:51:34;10.63;;;1.33;;
70547;SDS011;58099;43.406;3.698;2022-09-28T01:54:09;7.00;;;1.30;;
70547;SDS011;58099;43.406;3.698;2022-09-28T01:56:45;9.50;;;1.35;;
70547;SDS011;58099;43.406;3.698;2022-09-28T01:59:32;12.03;;;1.23;;
70547;SDS011;58099;43.406;3.698;2022-09-28T02:02:02;11.43;;;1.83;;
70547;SDS011;58099;43.406;3.698;2022-09-28T02:04:34;9.90;;;1.50;;
70547;SDS011;58099;43.406;3.698;2022-09-28T02:07:06;11.38;;;1.30;;
70547;SDS011;58099;43.406;3.698;2022-09-28T02:09:41;9.95;;;1.48;;
70547;SDS011;58099;43.406;3.698;2022-09-28T02:12:26;10.50;;;1.10;;
70547;SDS011;58099;43.406;3.698;2022-09-28T02:15:02;11.68;;;1.25;;
70547;SDS011;58099;43.406;3.698;2022-09-28T02:17:51;9.68;;;1.20;;
70547;SDS011;58099;43.406;3.698;2022-09-28T02:20:18;8.50;;;0.90;;
70547;SDS011;58099;43.406;3.698;2022-09-28T02:22:49;8.52;;;0.73;;
70547;SDS011;58099;43.406;3.698;2022-09-28T02:25:21;8.50;;;0.80;;
70547;SDS011;58099;43.406;3.698;2022-09-28T02:28:10;10.18;;;1.00;;
70547;SDS011;58099;43.406;3.698;2022-09-28T02:30:37;10.80;;;1.00;;
70547;SDS011;58099;43.406;3.698;2022-09-28T02:33:10;5.90;;;0.77;;
70547;SDS011;58099;43.406;3.698;2022-09-28T02:35:42;9.45;;;1.00;;
70547;SDS011;58099;43.406;3.698;2022-09-28T02:38:11;6.90;;;0.83;;
70547;SDS011;58099;43.406;3.698;2022-09-28T02:40:38;10.35;;;1.00;;
70547;SDS011;58099;43.406;3.698;2022-09-28T02:51:29;8.05;;;0.80;;
70547;SDS011;58099;43.406;3.698;2022-09-28T03:07:51;6.13;;;0.67;;
70547;SDS011;58099;43.406;3.698;2022-09-28T03:13:13;7.78;;;0.68;;
70547;SDS011;58099;43.406;3.698;2022-09-28T03:15:40;4.47;;;0.68;;
70547;SDS011;58099;43.406;3.698;2022-09-28T03:18:06;5.80;;;0.70;;
70547;SDS011;58099;43.406;3.698;2022-09-28T03:20:32;5.83;;;0.70;;
70547;SDS011;58099;43.406;3.698;2022-09-28T03:23:00;6.70;;;0.80;;
70547;SDS011;58099;43.406;3.698;2022-09-28T03:28:29;6.55;;;0.70;;
70547;SDS011;58099;43.406;3.698;2022-09-28T03:30:55;7.40;;;0.80;;
70547;SDS011;58099;43.406;3.698;2022-09-28T03:33:21;5.80;;;0.50;;
70547;SDS011;58099;43.406;3.698;2022-09-28T03:35:48;6.67;;;0.60;;
70547;SDS011;58099;43.406;3.698;2022-09-28T03:38:18;5.75;;;0.80;;
70547;SDS011;58099;43.406;3.698;2022-09-28T03:40:51;4.53;;;0.60;;
70547;SDS011;58099;43.406;3.698;2022-09-28T03:43:17;6.35;;;0.50;;
70547;SDS011;58099;43.406;3.698;2022-09-28T03:45:43;5.07;;;0.40;;
70547;SDS011;58099;43.406;3.698;2022-09-28T03:48:26;7.53;;;0.80;;
70547;SDS011;58099;43.406;3.698;2022-09-28T03:50:54;7.05;;;0.77;;
70547;SDS011;58099;43.406;3.698;2022-09-28T03:53:21;5.55;;;0.63;;
70547;SDS011;58099;43.406;3.698;2022-09-28T03:55:47;8.10;;;0.60;;
70547;SDS011;58099;43.406;3.698;2022-09-28T03:58:14;5.90;;;0.70;;
70547;SDS011;58099;43.406;3.698;2022-09-28T04:00:43;4.07;;;0.55;;
70547;SDS011;58099;43.406;3.698;2022-09-28T04:03:08;4.80;;;0.52;;
70547;SDS011;58099;43.406;3.698;2022-09-28T04:05:34;4.57;;;0.60;;
70547;SDS011;58099;43.406;3.698;2022-09-28T04:08:00;5.75;;;0.65;;
70547;SDS011;58099;43.406;3.698;2022-09-28T04:10:26;5.57;;;0.47;;
70547;SDS011;58099;43.406;3.698;2022-09-28T04:12:55;4.80;;;0.63;;
70547;SDS011;58099;43.406;3.698;2022-09-28T04:15:24;5.95;;;0.63;;
70547;SDS011;58099;43.406;3.698;2022-09-28T04:17:50;4.97;;;0.47;;
70547;SDS011;58099;43.406;3.698;2022-09-28T04:20:16;4.18;;;0.60;;
70547;SDS011;58099;43.406;3.698;2022-09-28T04:22:42;6.88;;;0.50;;
70547;SDS011;58099;43.406;3.698;2022-09-28T04:25:08;7.87;;;0.70;;
70547;SDS011;58099;43.406;3.698;2022-09-28T04:27:34;4.68;;;0.50;;
70547;SDS011;58099;43.406;3.698;2022-09-28T04:30:18;4.72;;;0.50;;
70547;SDS011;58099;43.406;3.698;2022-09-28T04:32:47;4.05;;;0.50;;
70547;SDS011;58099;43.406;3.698;2022-09-28T04:35:13;3.73;;;0.60;;
70547;SDS011;58099;43.406;3.698;2022-09-28T04:37:39;5.68;;;0.50;;
70547;SDS011;58099;43.406;3.698;2022-09-28T04:40:05;3.95;;;0.40;;
70547;SDS011;58099;43.406;3.698;2022-09-28T04:42:32;7.03;;;0.50;;
70547;SDS011;58099;43.406;3.698;2022-09-28T04:44:58;3.72;;;0.30;;
70547;SDS011;58099;43.406;3.698;2022-09-28T04:47:25;3.40;;;0.20;;
70547;SDS011;58099;43.406;3.698;2022-09-28T04:49:50;4.57;;;0.32;;
70547;SDS011;58099;43.406;3.698;2022-09-28T04:52:16;5.35;;;0.60;;
70547;SDS011;58099;43.406;3.698;2022-09-28T04:54:42;6.27;;;0.50;;
70547;SDS011;58099;43.406;3.698;2022-09-28T04:57:08;4.13;;;0.30;;
70547;SDS011;58099;43.406;3.698;2022-09-28T04:59:33;5.73;;;0.40;;
70547;SDS011;58099;43.406;3.698;2022-09-28T05:02:01;3.13;;;0.30;;
70547;SDS011;58099;43.406;3.698;2022-09-28T05:04:26;3.70;;;0.43;;
70547;SDS011;58099;43.406;3.698;2022-09-28T05:06:52;4.03;;;0.50;;
70547;SDS011;58099;43.406;3.698;2022-09-28T05:09:18;4.07;;;0.30;;
70547;SDS011;58099;43.406;3.698;2022-09-28T05:11:43;6.18;;;0.40;;
70547;SDS011;58099;43.406;3.698;2022-09-28T05:14:09;4.63;;;0.33;;
70547;SDS011;58099;43.406;3.698;2022-09-28T05:16:36;3.97;;;0.40;;
70547;SDS011;58099;43.406;3.698;2022-09-28T05:19:01;4.00;;;0.30;;
70547;SDS011;58099;43.406;3.698;2022-09-28T05:21:27;2.83;;;0.30;;
70547;SDS011;58099;43.406;3.698;2022-09-28T05:23:54;2.47;;;0.30;;
70547;SDS011;58099;43.406;3.698;2022-09-28T05:26:21;2.30;;;0.40;;
70547;SDS011;58099;43.406;3.698;2022-09-28T05:28:47;3.10;;;0.30;;
70547;SDS011;58099;43.406;3.698;2022-09-28T05:31:13;3.83;;;0.40;;
70547;SDS011;58099;43.406;3.698;2022-09-28T05:33:38;2.90;;;0.30;;
70547;SDS011;58099;43.406;3.698;2022-09-28T05:36:07;4.63;;;0.40;;
70547;SDS011;58099;43.406;3.698;2022-09-28T05:38:33;3.03;;;0.20;;
70547;SDS011;58099;43.406;3.698;2022-09-28T05:40:59;2.00;;;0.20;;
70547;SDS011;58099;43.406;3.698;2022-09-28T05:43:24;2.88;;;0.40;;
70547;SDS011;58099;43.406;3.698;2022-09-28T05:45:50;2.87;;;0.30;;
70547;SDS011;58099;43.406;3.698;2022-09-28T05:48:16;2.70;;;0.30;;
70547;SDS011;58099;43.406;3.698;2022-09-28T05:50:41;3.78;;;0.20;;
70547;SDS011;58099;43.406;3.698;2022-09-28T05:53:08;2.42;;;0.30;;
70547;SDS011;58099;43.406;3.698;2022-09-28T05:55:34;4.35;;;0.43;;
70547;SDS011;58099;43.406;3.698;2022-09-28T05:58:02;2.30;;;0.30;;
70547;SDS011;58099;43.406;3.698;2022-09-28T06:00:30;2.33;;;0.20;;
70547;SDS011;58099;43.406;3.698;2022-09-28T06:03:00;3.00;;;0.30;;
70547;SDS011;58099;43.406;3.698;2022-09-28T06:05:28;2.93;;;0.30;;
70547;SDS011;58099;43.406;3.698;2022-09-28T06:07:54;2.83;;;0.38;;
70547;SDS011;58099;43.406;3.698;2022-09-28T06:10:21;3.42;;;0.30;;
70547;SDS011;58099;43.406;3.698;2022-09-28T06:12:50;2.92;;;0.30;;
70547;SDS011;58099;43.406;3.698;2022-09-28T06:15:17;3.33;;;0.40;;
70547;SDS011;58099;43.406;3.698;2022-09-28T06:17:43;1.70;;;0.20;;
70547;SDS011;58099;43.406;3.698;2022-09-28T06:20:09;2.10;;;0.30;;
70547;SDS011;58099;43.406;3.698;2022-09-28T06:22:36;2.95;;;0.28;;
70547;SDS011;58099;43.406;3.698;2022-09-28T06:25:02;2.27;;;0.30;;
70547;SDS011;58099;43.406;3.698;2022-09-28T06:27:29;1.50;;;0.30;;
70547;SDS011;58099;43.406;3.698;2022-09-28T06:29:55;3.08;;;0.38;;
70547;SDS011;58099;43.406;3.698;2022-09-28T06:32:20;2.43;;;0.20;;
70547;SDS011;58099;43.406;3.698;2022-09-28T06:34:46;3.72;;;0.30;;
70547;SDS011;58099;43.406;3.698;2022-09-28T06:37:12;2.38;;;0.22;;
70547;SDS011;58099;43.406;3.698;2022-09-28T06:39:37;3.17;;;0.30;;
70547;SDS011;58099;43.406;3.698;2022-09-28T06:42:03;1.73;;;0.20;;
70547;SDS011;58099;43.406;3.698;2022-09-28T06:44:29;2.13;;;0.30;;
70547;SDS011;58099;43.406;3.698;2022-09-28T06:46:55;2.97;;;0.30;;
70547;SDS011;58099;43.406;3.698;2022-09-28T06:49:21;2.83;;;0.20;;
70547;SDS011;58099;43.406;3.698;2022-09-28T06:51:47;2.53;;;0.30;;
70547;SDS011;58099;43.406;3.698;2022-09-28T06:54:12;2.08;;;0.25;;
70547;SDS011;58099;43.406;3.698;2022-09-28T06:56:38;2.83;;;0.20;;
70547;SDS011;58099;43.406;3.698;2022-09-28T06:59:04;3.40;;;0.30;;
70547;SDS011;58099;43.406;3.698;2022-09-28T07:01:30;2.40;;;0.25;;
70547;SDS011;58099;43.406;3.698;2022-09-28T07:03:56;2.08;;;0.25;;
70547;SDS011;58099;43.406;3.698;2022-09-28T07:06:21;2.67;;;0.30;;
70547;SDS011;58099;43.406;3.698;2022-09-28T07:08:50;1.80;;;0.30;;
70547;SDS011;58099;43.406;3.698;2022-09-28T07:11:16;3.22;;;0.30;;
70547;SDS011;58099;43.406;3.698;2022-09-28T07:13:44;2.60;;;0.23;;
70547;SDS011;58099;43.406;3.698;2022-09-28T07:16:10;2.30;;;0.20;;
70547;SDS011;58099;43.406;3.698;2022-09-28T07:18:36;2.03;;;0.28;;
70547;SDS011;58099;43.406;3.698;2022-09-28T07:21:03;2.87;;;0.30;;
70547;SDS011;58099;43.406;3.698;2022-09-28T07:23:31;2.30;;;0.30;;
70547;SDS011;58099;43.406;3.698;2022-09-28T07:25:57;2.47;;;0.25;;
70547;SDS011;58099;43.406;3.698;2022-09-28T07:28:28;2.30;;;0.30;;
70547;SDS011;58099;43.406;3.698;2022-09-28T07:30:55;2.78;;;0.30;;
70547;SDS011;58099;43.406;3.698;2022-09-28T07:33:22;2.42;;;0.30;;
70547;SDS011;58099;43.406;3.698;2022-09-28T07:35:54;2.67;;;0.30;;
70547;SDS011;58099;43.406;3.698;2022-09-28T07:38:19;2.33;;;0.30;;
70547;SDS011;58099;43.406;3.698;2022-09-28T07:40:45;3.60;;;0.30;;
70547;SDS011;58099;43.406;3.698;2022-09-28T07:43:30;3.90;;;0.30;;
70547;SDS011;58099;43.406;3.698;2022-09-28T07:45:56;3.30;;;0.30;;
70547;SDS011;58099;43.406;3.698;2022-09-28T07:48:22;6.05;;;2.15;;
70547;SDS011;58099;43.406;3.698;2022-09-28T07:53:18;2.38;;;0.40;;
70547;SDS011;58099;43.406;3.698;2022-09-28T07:55:54;2.40;;;0.38;;
70547;SDS011;58099;43.406;3.698;2022-09-28T07:58:26;3.03;;;0.40;;
70547;SDS011;58099;43.406;3.698;2022-09-28T08:00:51;1.90;;;0.30;;
70547;SDS011;58099;43.406;3.698;2022-09-28T08:03:18;2.47;;;0.25;;
70547;SDS011;58099;43.406;3.698;2022-09-28T08:05:46;2.35;;;0.25;;
70547;SDS011;58099;43.406;3.698;2022-09-28T08:08:12;2.38;;;0.40;;
70547;SDS011;58099;43.406;3.698;2022-09-28T08:10:41;3.78;;;0.40;;
70547;SDS011;58099;43.406;3.698;2022-09-28T08:13:07;3.63;;;0.30;;
70547;SDS011;58099;43.406;3.698;2022-09-28T08:15:33;2.58;;;0.30;;
70547;SDS011;58099;43.406;3.698;2022-09-28T08:18:01;2.63;;;0.50;;
70547;SDS011;58099;43.406;3.698;2022-09-28T08:20:28;4.80;;;0.30;;
70547;SDS011;58099;43.406;3.698;2022-09-28T08:23:12;2.25;;;0.30;;
70547;SDS011;58099;43.406;3.698;2022-09-28T08:25:38;2.20;;;0.30;;
70547;SDS011;58099;43.406;3.698;2022-09-28T08:28:04;2.90;;;0.30;;
70547;SDS011;58099;43.406;3.698;2022-09-28T08:30:33;2.42;;;0.40;;
70547;SDS011;58099;43.406;3.698;2022-09-28T08:32:59;2.53;;;0.30;;
70547;SDS011;58099;43.406;3.698;2022-09-28T08:35:24;3.22;;;0.40;;
70547;SDS011;58099;43.406;3.698;2022-09-28T08:37:51;2.45;;;0.30;;
70547;SDS011;58099;43.406;3.698;2022-09-28T08:40:22;3.17;;;0.40;;
70547;SDS011;58099;43.406;3.698;2022-09-28T08:42:51;2.10;;;0.20;;
70547;SDS011;58099;43.406;3.698;2022-09-28T08:45:23;2.00;;;0.30;;
70547;SDS011;58099;43.406;3.698;2022-09-28T08:51:09;2.22;;;0.40;;
70547;SDS011;58099;43.406;3.698;2022-09-28T08:53:53;2.27;;;0.20;;
70547;SDS011;58099;43.406;3.698;2022-09-28T08:58:57;3.00;;;0.30;;
70547;SDS011;58099;43.406;3.698;2022-09-28T09:02:11;2.35;;;0.30;;
70547;SDS011;58099;43.406;3.698;2022-09-28T09:04:21;3.60;;;0.40;;
70547;SDS011;58099;43.406;3.698;2022-09-28T09:11:51;2.43;;;0.50;;
70547;SDS011;58099;43.406;3.698;2022-09-28T09:17:42;3.15;;;0.60;;
70547;SDS011;58099;43.406;3.698;2022-09-28T09:22:53;1.97;;;0.27;;
70547;SDS011;58099;43.406;3.698;2022-09-28T09:25:26;2.88;;;0.47;;
70547;SDS011;58099;43.406;3.698;2022-09-28T09:30:33;2.85;;;0.40;;
70547;SDS011;58099;43.406;3.698;2022-09-28T09:46:50;1.87;;;0.37;;
70547;SDS011;58099;43.406;3.698;2022-09-28T09:49:55;3.33;;;0.40;;
70547;SDS011;58099;43.406;3.698;2022-09-28T09:52:26;2.67;;;0.50;;
70547;SDS011;58099;43.406;3.698;2022-09-28T09:57:38;2.67;;;0.60;;
70547;SDS011;58099;43.406;3.698;2022-09-28T10:00:12;3.20;;;0.70;;
70547;SDS011;58099;43.406;3.698;2022-09-28T10:02:39;3.00;;;0.55;;
70547;SDS011;58099;43.406;3.698;2022-09-28T10:07:38;3.33;;;0.55;;
70547;SDS011;58099;43.406;3.698;2022-09-28T10:10:24;4.03;;;0.60;;
70547;SDS011;58099;43.406;3.698;2022-09-28T10:12:54;4.50;;;0.60;;
70547;SDS011;58099;43.406;3.698;2022-09-28T10:15:22;3.40;;;0.77;;
70547;SDS011;58099;43.406;3.698;2022-09-28T10:17:51;2.55;;;0.40;;
70547;SDS011;58099;43.406;3.698;2022-09-28T10:20:21;6.13;;;0.60;;
70547;SDS011;58099;43.406;3.698;2022-09-28T10:22:52;4.13;;;0.50;;
70547;SDS011;58099;43.406;3.698;2022-09-28T10:25:21;3.47;;;0.60;;
70547;SDS011;58099;43.406;3.698;2022-09-28T10:27:48;4.97;;;0.77;;
70547;SDS011;58099;43.406;3.698;2022-09-28T10:32:49;3.15;;;0.80;;
70547;SDS011;58099;43.406;3.698;2022-09-28T10:37:59;3.40;;;0.60;;
70547;SDS011;58099;43.406;3.698;2022-09-28T10:43:01;3.03;;;0.50;;
70547;SDS011;58099;43.406;3.698;2022-09-28T10:45:35;3.87;;;0.57;;
70547;SDS011;58099;43.406;3.698;2022-09-28T10:48:05;3.78;;;0.60;;
70547;SDS011;58099;43.406;3.698;2022-09-28T10:50:59;3.45;;;0.50;;
70547;SDS011;58099;43.406;3.698;2022-09-28T10:53:29;3.30;;;0.60;;
70547;SDS011;58099;43.406;3.698;2022-09-28T10:56:06;3.30;;;0.30;;
70547;SDS011;58099;43.406;3.698;2022-09-28T10:58:42;2.13;;;0.30;;
70547;SDS011;58099;43.406;3.698;2022-09-28T11:01:09;3.38;;;0.50;;
70547;SDS011;58099;43.406;3.698;2022-09-28T11:06:23;2.90;;;0.50;;
70547;SDS011;58099;43.406;3.698;2022-09-28T11:08:54;2.83;;;0.40;;
70547;SDS011;58099;43.406;3.698;2022-09-28T11:11:22;3.15;;;0.40;;
70547;SDS011;58099;43.406;3.698;2022-09-28T11:14:00;3.25;;;0.40;;
70547;SDS011;58099;43.406;3.698;2022-09-28T11:16:28;2.20;;;0.40;;
70547;SDS011;58099;43.406;3.698;2022-09-28T11:18:56;4.00;;;0.30;;
70547;SDS011;58099;43.406;3.698;2022-09-28T11:21:27;3.40;;;0.50;;
70547;SDS011;58099;43.406;3.698;2022-09-28T11:26:42;2.47;;;0.38;;
70547;SDS011;58099;43.406;3.698;2022-09-28T11:29:21;2.50;;;0.40;;
70547;SDS011;58099;43.406;3.698;2022-09-28T11:31:51;4.13;;;0.68;;
70547;SDS011;58099;43.406;3.698;2022-09-28T11:34:24;2.20;;;0.60;;
70547;SDS011;58099;43.406;3.698;2022-09-28T11:39:50;2.90;;;0.40;;
70547;SDS011;58099;43.406;3.698;2022-09-28T11:48:07;4.43;;;0.40;;
70547;SDS011;58099;43.406;3.698;2022-09-28T11:50:47;4.53;;;0.40;;
70547;SDS011;58099;43.406;3.698;2022-09-28T11:53:25;3.90;;;0.60;;
70547;SDS011;58099;43.406;3.698;2022-09-28T11:56:08;4.13;;;0.40;;
70547;SDS011;58099;43.406;3.698;2022-09-28T11:58:49;2.80;;;0.30;;
70547;SDS011;58099;43.406;3.698;2022-09-28T12:01:31;2.13;;;0.30;;
70547;SDS011;58099;43.406;3.698;2022-09-28T12:04:04;3.20;;;0.57;;
70547;SDS011;58099;43.406;3.698;2022-09-28T12:06:47;3.75;;;0.47;;
70547;SDS011;58099;43.406;3.698;2022-09-28T12:09:19;3.58;;;0.40;;
70547;SDS011;58099;43.406;3.698;2022-09-28T12:11:57;4.07;;;0.73;;
70547;SDS011;58099;43.406;3.698;2022-09-28T12:14:33;2.53;;;0.60;;
70547;SDS011;58099;43.406;3.698;2022-09-28T12:17:17;3.53;;;0.47;;
70547;SDS011;58099;43.406;3.698;2022-09-28T12:19:52;3.13;;;0.50;;
70547;SDS011;58099;43.406;3.698;2022-09-28T12:22:34;2.70;;;0.60;;
70547;SDS011;58099;43.406;3.698;2022-09-28T12:25:05;3.47;;;0.50;;
70547;SDS011;58099;43.406;3.698;2022-09-28T12:27:40;3.70;;;0.50;;
70547;SDS011;58099;43.406;3.698;2022-09-28T12:30:17;3.45;;;0.50;;
70547;SDS011;58099;43.406;3.698;2022-09-28T12:33:08;3.70;;;0.50;;
70547;SDS011;58099;43.406;3.698;2022-09-28T12:35:59;3.20;;;0.50;;
70547;SDS011;58099;43.406;3.698;2022-09-28T12:41:48;3.60;;;0.37;;
70547;SDS011;58099;43.406;3.698;2022-09-28T12:44:58;2.40;;;0.45;;
70547;SDS011;58099;43.406;3.698;2022-09-28T12:48:22;2.42;;;0.40;;
70547;SDS011;58099;43.406;3.698;2022-09-28T12:59:16;2.33;;;0.40;;
70547;SDS011;58099;43.406;3.698;2022-09-28T13:16:03;1.25;;;0.20;;
70547;SDS011;58099;43.406;3.698;2022-09-28T13:21:27;4.03;;;0.40;;
70547;SDS011;58099;43.406;3.698;2022-09-28T13:24:06;4.10;;;0.40;;
70547;SDS011;58099;43.406;3.698;2022-09-28T13:26:39;2.20;;;0.40;;
70547;SDS011;58099;43.406;3.698;2022-09-28T13:29:10;2.83;;;0.40;;
70547;SDS011;58099;43.406;3.698;2022-09-28T13:31:48;2.00;;;0.30;;
70547;SDS011;58099;43.406;3.698;2022-09-28T13:34:16;2.10;;;0.30;;
70547;SDS011;58099;43.406;3.698;2022-09-28T13:42:10;2.10;;;0.40;;
70547;SDS011;58099;43.406;3.698;2022-09-28T13:58:57;3.23;;;0.40;;
70547;SDS011;58099;43.406;3.698;2022-09-28T14:02:03;2.08;;;0.40;;
70547;SDS011;58099;43.406;3.698;2022-09-28T14:04:59;1.77;;;0.30;;
70547;SDS011;58099;43.406;3.698;2022-09-28T14:12:51;2.00;;;0.40;;
70547;SDS011;58099;43.406;3.698;2022-09-28T14:20:34;2.25;;;0.40;;
70547;SDS011;58099;43.406;3.698;2022-09-28T14:25:58;2.80;;;0.40;;
70547;SDS011;58099;43.406;3.698;2022-09-28T14:28:37;2.65;;;0.50;;
70547;SDS011;58099;43.406;3.698;2022-09-28T14:31:27;2.35;;;0.40;;
70547;SDS011;58099;43.406;3.698;2022-09-28T14:33:56;2.35;;;0.47;;
70547;SDS011;58099;43.406;3.698;2022-09-28T14:36:40;2.92;;;0.50;;
70547;SDS011;58099;43.406;3.698;2022-09-28T14:39:30;2.47;;;0.40;;
70547;SDS011;58099;43.406;3.698;2022-09-28T14:42:18;2.10;;;0.40;;
70547;SDS011;58099;43.406;3.698;2022-09-28T14:52:43;2.57;;;0.40;;
70547;SDS011;58099;43.406;3.698;2022-09-28T14:55:14;2.60;;;0.50;;
70547;SDS011;58099;43.406;3.698;2022-09-28T14:57:43;3.42;;;0.43;;
70547;SDS011;58099;43.406;3.698;2022-09-28T15:00:20;2.22;;;0.20;;
70547;SDS011;58099;43.406;3.698;2022-09-28T15:02:50;2.33;;;0.45;;
70547;SDS011;58099;43.406;3.698;2022-09-28T15:05:28;3.80;;;0.43;;
70547;SDS011;58099;43.406;3.698;2022-09-28T15:08:00;3.97;;;0.40;;
70547;SDS011;58099;43.406;3.698;2022-09-28T15:10:35;3.42;;;0.40;;
70547;SDS011;58099;43.406;3.698;2022-09-28T15:13:25;2.58;;;0.40;;
70547;SDS011;58099;43.406;3.698;2022-09-28T15:15:54;4.18;;;0.40;;
70547;SDS011;58099;43.406;3.698;2022-09-28T15:18:26;2.60;;;0.40;;
70547;SDS011;58099;43.406;3.698;2022-09-28T15:21:09;2.35;;;0.43;;
70547;SDS011;58099;43.406;3.698;2022-09-28T15:23:37;4.13;;;0.30;;
70547;SDS011;58099;43.406;3.698;2022-09-28T15:26:06;3.15;;;0.40;;
70547;SDS011;58099;43.406;3.698;2022-09-28T15:28:43;3.80;;;0.50;;
70547;SDS011;58099;43.406;3.698;2022-09-28T15:31:15;4.13;;;0.40;;
70547;SDS011;58099;43.406;3.698;2022-09-28T15:33:44;3.40;;;0.40;;
70547;SDS011;58099;43.406;3.698;2022-09-28T15:36:28;2.97;;;0.35;;
70547;SDS011;58099;43.406;3.698;2022-09-28T15:38:59;2.80;;;0.30;;
70547;SDS011;58099;43.406;3.698;2022-09-28T15:44:34;2.10;;;0.30;;
70547;SDS011;58099;43.406;3.698;2022-09-28T15:47:06;2.30;;;0.30;;
70547;SDS011;58099;43.406;3.698;2022-09-28T15:49:39;3.45;;;0.50;;
70547;SDS011;58099;43.406;3.698;2022-09-28T15:55:36;2.30;;;0.37;;
70547;SDS011;58099;43.406;3.698;2022-09-28T16:00:45;2.80;;;0.57;;
70547;SDS011;58099;43.406;3.698;2022-09-28T16:05:45;2.88;;;0.30;;
70547;SDS011;58099;43.406;3.698;2022-09-28T16:08:43;3.13;;;0.30;;
70547;SDS011;58099;43.406;3.698;2022-09-28T16:16:36;3.05;;;0.30;;
70547;SDS011;58099;43.406;3.698;2022-09-28T16:19:25;2.25;;;0.30;;
70547;SDS011;58099;43.406;3.698;2022-09-28T16:21:54;2.43;;;0.30;;
70547;SDS011;58099;43.406;3.698;2022-09-28T16:24:25;2.40;;;0.30;;
70547;SDS011;58099;43.406;3.698;2022-09-28T16:34:49;2.83;;;0.30;;
70547;SDS011;58099;43.406;3.698;2022-09-28T16:37:39;3.03;;;0.50;;
70547;SDS011;58099;43.406;3.698;2022-09-28T16:40:06;2.08;;;0.30;;
70547;SDS011;58099;43.406;3.698;2022-09-28T16:42:33;2.30;;;0.40;;
70547;SDS011;58099;43.406;3.698;2022-09-28T16:44:59;2.58;;;0.30;;
70547;SDS011;58099;43.406;3.698;2022-09-28T16:47:29;3.03;;;0.30;;
70547;SDS011;58099;43.406;3.698;2022-09-28T16:50:04;3.17;;;0.30;;
70547;SDS011;58099;43.406;3.698;2022-09-28T16:52:34;3.00;;;0.30;;
70547;SDS011;58099;43.406;3.698;2022-09-28T16:55:18;3.85;;;0.20;;
70547;SDS011;58099;43.406;3.698;2022-09-28T16:57:45;1.93;;;0.30;;
70547;SDS011;58099;43.406;3.698;2022-09-28T17:00:15;2.17;;;0.40;;
70547;SDS011;58099;43.406;3.698;2022-09-28T17:02:46;2.20;;;0.30;;
70547;SDS011;58099;43.406;3.698;2022-09-28T17:05:16;2.28;;;0.20;;
70547;SDS011;58099;43.406;3.698;2022-09-28T17:07:48;2.23;;;0.30;;
70547;SDS011;58099;43.406;3.698;2022-09-28T17:10:28;3.30;;;0.20;;
70547;SDS011;58099;43.406;3.698;2022-09-28T17:13:01;3.08;;;0.30;;
70547;SDS011;58099;43.406;3.698;2022-09-28T17:15:27;3.13;;;0.20;;
70547;SDS011;58099;43.406;3.698;2022-09-28T17:17:53;3.27;;;0.27;;
70547;SDS011;58099;43.406;3.698;2022-09-28T17:20:23;1.80;;;0.20;;
70547;SDS011;58099;43.406;3.698;2022-09-28T17:22:51;2.17;;;0.28;;
70547;SDS011;58099;43.406;3.698;2022-09-28T17:25:18;2.70;;;0.20;;
70547;SDS011;58099;43.406;3.698;2022-09-28T17:27:46;2.53;;;0.30;;
70547;SDS011;58099;43.406;3.698;2022-09-28T17:30:13;2.30;;;0.30;;
70547;SDS011;58099;43.406;3.698;2022-09-28T17:32:39;2.63;;;0.30;;
70547;SDS011;58099;43.406;3.698;2022-09-28T17:35:09;2.30;;;0.30;;
70547;SDS011;58099;43.406;3.698;2022-09-28T17:37:35;3.45;;;0.50;;
70547;SDS011;58099;43.406;3.698;2022-09-28T17:40:03;2.90;;;0.60;;
70547;SDS011;58099;43.406;3.698;2022-09-28T17:42:38;2.70;;;0.30;;
70547;SDS011;58099;43.406;3.698;2022-09-28T17:45:03;2.15;;;0.20;;
70547;SDS011;58099;43.406;3.698;2022-09-28T17:47:29;2.20;;;0.30;;
70547;SDS011;58099;43.406;3.698;2022-09-28T17:49:55;3.22;;;0.40;;
70547;SDS011;58099;43.406;3.698;2022-09-28T17:52:22;4.00;;;0.30;;
70547;SDS011;58099;43.406;3.698;2022-09-28T17:54:48;2.50;;;0.30;;
70547;SDS011;58099;43.406;3.698;2022-09-28T17:57:13;2.97;;;0.20;;
70547;SDS011;58099;43.406;3.698;2022-09-28T17:59:39;2.88;;;0.30;;
70547;SDS011;58099;43.406;3.698;2022-09-28T18:02:07;3.47;;;0.30;;
70547;SDS011;58099;43.406;3.698;2022-09-28T18:04:35;2.28;;;0.30;;
70547;SDS011;58099;43.406;3.698;2022-09-28T18:07:01;2.10;;;0.30;;
70547;SDS011;58099;43.406;3.698;2022-09-28T18:09:27;2.60;;;0.20;;
70547;SDS011;58099;43.406;3.698;2022-09-28T18:11:58;3.10;;;0.30;;
70547;SDS011;58099;43.406;3.698;2022-09-28T18:14:25;3.28;;;0.38;;
70547;SDS011;58099;43.406;3.698;2022-09-28T18:16:51;2.77;;;0.20;;
70547;SDS011;58099;43.406;3.698;2022-09-28T18:19:17;3.00;;;0.30;;
70547;SDS011;58099;43.406;3.698;2022-09-28T18:21:42;3.38;;;0.50;;
70547;SDS011;58099;43.406;3.698;2022-09-28T18:24:08;3.27;;;0.30;;
70547;SDS011;58099;43.406;3.698;2022-09-28T18:26:34;3.33;;;0.40;;
70547;SDS011;58099;43.406;3.698;2022-09-28T18:29:00;2.77;;;0.20;;
70547;SDS011;58099;43.406;3.698;2022-09-28T18:31:26;2.70;;;0.30;;
70547;SDS011;58099;43.406;3.698;2022-09-28T18:33:55;3.73;;;0.37;;